sensor_id;sensor_type;location;lat;lon;timestamp;P1;P2;P0
61760;PMS5003;47664;51.660;-0.100;2023-04-28T00:02:08;71;53;
61760;PMS5003;47664;51.660;-0.100;2023-04-28T00:04:36;56;46;
61760;PMS5003;47664;51.660;-0.100;2023-04-28T00:07:03;57;48;
61760;PMS5003;47664;51.660;-0.100;2023-04-28T00:09:31;56;48;
61760;PMS5003;47664;51.660;-0.100;2023-04-28T00:11:59;58;50;
61760;PMS5003;47664;51.660;-0.100;2023-04-28T00:14:26;50;47;
61760;PMS5003;47664;51.660;-0.100;2023-04-28T00:16:53;56;46;
61760;PMS5003;47664;51.660;-0.100;2023-04-28T00:19:20;58;49;
61760;PMS5003;47664;51.660;-0.100;2023-04-28T00:21:48;61;52;
61760;PMS5003;47664;51.660;-0.100;2023-04-28T00:24:15;57;51;
61760;PMS5003;47664;51.660;-0.100;2023-04-28T00:26:42;58;54;
61760;PMS5003;47664;51.660;-0.100;2023-04-28T00:29:09;51;46;
61760;PMS5003;47664;51.660;-0.100;2023-04-28T00:31:36;49;44;
61760;PMS5003;47664;51.660;-0.100;2023-04-28T00:34:03;67;50;
61760;PMS5003;47664;51.660;-0.100;2023-04-28T00:36:31;56;52;
61760;PMS5003;47664;51.660;-0.100;2023-04-28T00:38:58;63;49;
61760;PMS5003;47664;51.660;-0.100;2023-04-28T00:41:25;57;47;
61760;PMS5003;47664;51.660;-0.100;2023-04-28T00:43:53;61;51;
61760;PMS5003;47664;51.660;-0.100;2023-04-28T00:46:21;54;46;
61760;PMS5003;47664;51.660;-0.100;2023-04-28T00:48:50;59;49;
61760;PMS5003;47664;51.660;-0.100;2023-04-28T00:51:17;63;48;
61760;PMS5003;47664;51.660;-0.100;2023-04-28T00:53:44;57;48;
61760;PMS5003;47664;51.660;-0.100;2023-04-28T00:56:12;57;49;
61760;PMS5003;47664;51.660;-0.100;2023-04-28T00:58:39;55;42;
61760;PMS5003;47664;51.660;-0.100;2023-04-28T01:01:07;51;42;
61760;PMS5003;47664;51.660;-0.100;2023-04-28T01:03:36;54;43;
61760;PMS5003;47664;51.660;-0.100;2023-04-28T01:06:05;61;46;
61760;PMS5003;47664;51.660;-0.100;2023-04-28T01:08:35;48;39;
61760;PMS5003;47664;51.660;-0.100;2023-04-28T01:11:03;53;45;
61760;PMS5003;47664;51.660;-0.100;2023-04-28T01:13:31;59;48;
61760;PMS5003;47664;51.660;-0.100;2023-04-28T01:15:59;60;49;
61760;PMS5003;47664;51.660;-0.100;2023-04-28T01:18:26;50;47;
61760;PMS5003;47664;51.660;-0.100;2023-04-28T01:20:54;58;45;
61760;PMS5003;47664;51.660;-0.100;2023-04-28T01:23:22;54;47;
61760;PMS5003;47664;51.660;-0.100;2023-04-28T01:25:49;52;44;
61760;PMS5003;47664;51.660;-0.100;2023-04-28T01:28:16;61;47;
61760;PMS5003;47664;51.660;-0.100;2023-04-28T01:30:44;48;41;
61760;PMS5003;47664;51.660;-0.100;2023-04-28T01:33:11;57;46;
61760;PMS5003;47664;51.660;-0.100;2023-04-28T01:35:38;44;41;
61760;PMS5003;47664;51.660;-0.100;2023-04-28T01:38:06;62;46;
61760;PMS5003;47664;51.660;-0.100;2023-04-28T01:40:33;52;44;
61760;PMS5003;47664;51.660;-0.100;2023-04-28T01:43:01;56;45;
61760;PMS5003;47664;51.660;-0.100;2023-04-28T01:45:28;54;49;
61760;PMS5003;47664;51.660;-0.100;2023-04-28T01:47:56;53;45;
61760;PMS5003;47664;51.660;-0.100;2023-04-28T01:50:23;49;46;
61760;PMS5003;47664;51.660;-0.100;2023-04-28T01:52:51;47;39;
61760;PMS5003;47664;51.660;-0.100;2023-04-28T01:55:18;60;44;
61760;PMS5003;47664;51.660;-0.100;2023-04-28T01:57:45;48;42;
61760;PMS5003;47664;51.660;-0.100;2023-04-28T02:00:12;50;40;
61760;PMS5003;47664;51.660;-0.100;2023-04-28T02:02:40;50;41;
61760;PMS5003;47664;51.660;-0.100;2023-04-28T02:05:07;42;42;
61760;PMS5003;47664;51.660;-0.100;2023-04-28T02:07:35;49;40;
61760;PMS5003;47664;51.660;-0.100;2023-04-28T02:10:02;52;40;
61760;PMS5003;47664;51.660;-0.100;2023-04-28T02:12:30;52;42;
61760;PMS5003;47664;51.660;-0.100;2023-04-28T02:14:58;53;40;
61760;PMS5003;47664;51.660;-0.100;2023-04-28T02:17:25;50;37;
61760;PMS5003;47664;51.660;-0.100;2023-04-28T02:19:53;53;40;
61760;PMS5003;47664;51.660;-0.100;2023-04-28T02:22:20;46;36;
61760;PMS5003;47664;51.660;-0.100;2023-04-28T02:24:48;58;42;
61760;PMS5003;47664;51.660;-0.100;2023-04-28T02:27:15;51;41;
61760;PMS5003;47664;51.660;-0.100;2023-04-28T02:29:43;59;44;
61760;PMS5003;47664;51.660;-0.100;2023-04-28T02:32:10;51;43;
61760;PMS5003;47664;51.660;-0.100;2023-04-28T02:34:42;45;39;
61760;PMS5003;47664;51.660;-0.100;2023-04-28T02:37:09;41;37;
61760;PMS5003;47664;51.660;-0.100;2023-04-28T02:39:41;48;39;
61760;PMS5003;47664;51.660;-0.100;2023-04-28T02:42:08;50;41;
61760;PMS5003;47664;51.660;-0.100;2023-04-28T02:44:35;43;34;
61760;PMS5003;47664;51.660;-0.100;2023-04-28T02:47:03;35;32;
61760;PMS5003;47664;51.660;-0.100;2023-04-28T02:49:31;31;24;
61760;PMS5003;47664;51.660;-0.100;2023-04-28T02:51:58;29;24;
61760;PMS5003;47664;51.660;-0.100;2023-04-28T02:54:25;34;30;
61760;PMS5003;47664;51.660;-0.100;2023-04-28T02:56:52;19;19;
61760;PMS5003;47664;51.660;-0.100;2023-04-28T02:59:19;16;13;
61760;PMS5003;47664;51.660;-0.100;2023-04-28T03:01:47;21;18;
61760;PMS5003;47664;51.660;-0.100;2023-04-28T03:04:14;17;15;
61760;PMS5003;47664;51.660;-0.100;2023-04-28T03:06:42;20;17;
61760;PMS5003;47664;51.660;-0.100;2023-04-28T03:09:10;22;17;
61760;PMS5003;47664;51.660;-0.100;2023-04-28T03:11:37;20;17;
61760;PMS5003;47664;51.660;-0.100;2023-04-28T03:14:05;18;18;
61760;PMS5003;47664;51.660;-0.100;2023-04-28T03:16:33;21;14;
61760;PMS5003;47664;51.660;-0.100;2023-04-28T03:19:00;21;18;
61760;PMS5003;47664;51.660;-0.100;2023-04-28T03:21:33;14;14;
61760;PMS5003;47664;51.660;-0.100;2023-04-28T03:24:00;18;14;
61760;PMS5003;47664;51.660;-0.100;2023-04-28T03:26:28;13;11;
61760;PMS5003;47664;51.660;-0.100;2023-04-28T03:28:55;12;10;
61760;PMS5003;47664;51.660;-0.100;2023-04-28T03:31:22;13;10;
61760;PMS5003;47664;51.660;-0.100;2023-04-28T03:33:48;10;10;
61760;PMS5003;47664;51.660;-0.100;2023-04-28T03:36:16;10;10;
61760;PMS5003;47664;51.660;-0.100;2023-04-28T03:38:44;10;8;
61760;PMS5003;47664;51.660;-0.100;2023-04-28T03:41:11;11;9;
61760;PMS5003;47664;51.660;-0.100;2023-04-28T03:43:37;9;9;
61760;PMS5003;47664;51.660;-0.100;2023-04-28T03:46:04;11;9;
61760;PMS5003;47664;51.660;-0.100;2023-04-28T03:48:31;9;9;
61760;PMS5003;47664;51.660;-0.100;2023-04-28T03:50:59;10;10;
61760;PMS5003;47664;51.660;-0.100;2023-04-28T03:53:26;12;11;
61760;PMS5003;47664;51.660;-0.100;2023-04-28T03:55:53;11;8;
61760;PMS5003;47664;51.660;-0.100;2023-04-28T03:58:20;7;7;
61760;PMS5003;47664;51.660;-0.100;2023-04-28T04:00:48;8;8;
61760;PMS5003;47664;51.660;-0.100;2023-04-28T04:03:15;12;7;
61760;PMS5003;47664;51.660;-0.100;2023-04-28T04:05:42;6;6;
61760;PMS5003;47664;51.660;-0.100;2023-04-28T04:08:09;6;6;
61760;PMS5003;47664;51.660;-0.100;2023-04-28T04:10:36;9;6;
61760;PMS5003;47664;51.660;-0.100;2023-04-28T04:13:04;7;6;
61760;PMS5003;47664;51.660;-0.100;2023-04-28T04:15:31;8;8;
61760;PMS5003;47664;51.660;-0.100;2023-04-28T04:17:59;8;4;
61760;PMS5003;47664;51.660;-0.100;2023-04-28T04:20:26;9;7;
61760;PMS5003;47664;51.660;-0.100;2023-04-28T04:22:53;7;6;
61760;PMS5003;47664;51.660;-0.100;2023-04-28T04:25:20;6;5;
61760;PMS5003;47664;51.660;-0.100;2023-04-28T04:27:52;9;7;
61760;PMS5003;47664;51.660;-0.100;2023-04-28T04:30:19;6;6;
61760;PMS5003;47664;51.660;-0.100;2023-04-28T04:32:46;8;6;
61760;PMS5003;47664;51.660;-0.100;2023-04-28T04:35:13;6;4;
61760;PMS5003;47664;51.660;-0.100;2023-04-28T04:37:40;6;5;
61760;PMS5003;47664;51.660;-0.100;2023-04-28T04:40:12;7;6;
61760;PMS5003;47664;51.660;-0.100;2023-04-28T04:42:39;18;15;
61760;PMS5003;47664;51.660;-0.100;2023-04-28T04:45:07;7;7;
61760;PMS5003;47664;51.660;-0.100;2023-04-28T04:47:35;3;3;
61760;PMS5003;47664;51.660;-0.100;2023-04-28T04:50:03;3;3;
61760;PMS5003;47664;51.660;-0.100;2023-04-28T04:52:31;4;4;
61760;PMS5003;47664;51.660;-0.100;2023-04-28T04:54:58;3;3;
61760;PMS5003;47664;51.660;-0.100;2023-04-28T04:57:26;4;4;
61760;PMS5003;47664;51.660;-0.100;2023-04-28T04:59:53;5;3;
61760;PMS5003;47664;51.660;-0.100;2023-04-28T05:02:20;4;4;
61760;PMS5003;47664;51.660;-0.100;2023-04-28T05:04:46;4;4;
61760;PMS5003;47664;51.660;-0.100;2023-04-28T05:07:14;4;3;
61760;PMS5003;47664;51.660;-0.100;2023-04-28T05:09:41;5;3;
61760;PMS5003;47664;51.660;-0.100;2023-04-28T05:12:09;8;8;
61760;PMS5003;47664;51.660;-0.100;2023-04-28T05:14:36;3;3;
61760;PMS5003;47664;51.660;-0.100;2023-04-28T05:17:04;6;4;
61760;PMS5003;47664;51.660;-0.100;2023-04-28T05:19:31;3;3;
61760;PMS5003;47664;51.660;-0.100;2023-04-28T05:21:58;4;4;
61760;PMS5003;47664;51.660;-0.100;2023-04-28T05:24:25;7;4;
61760;PMS5003;47664;51.660;-0.100;2023-04-28T05:26:52;6;4;
61760;PMS5003;47664;51.660;-0.100;2023-04-28T05:29:19;4;4;
61760;PMS5003;47664;51.660;-0.100;2023-04-28T05:31:46;3;3;
61760;PMS5003;47664;51.660;-0.100;2023-04-28T05:34:13;6;5;
61760;PMS5003;47664;51.660;-0.100;2023-04-28T05:36:40;3;3;
61760;PMS5003;47664;51.660;-0.100;2023-04-28T05:39:08;4;4;
61760;PMS5003;47664;51.660;-0.100;2023-04-28T05:41:35;2;2;
61760;PMS5003;47664;51.660;-0.100;2023-04-28T05:44:03;3;3;
61760;PMS5003;47664;51.660;-0.100;2023-04-28T05:46:31;4;2;
61760;PMS5003;47664;51.660;-0.100;2023-04-28T05:48:58;4;4;
61760;PMS5003;47664;51.660;-0.100;2023-04-28T05:51:26;7;7;
61760;PMS5003;47664;51.660;-0.100;2023-04-28T05:53:53;6;4;
61760;PMS5003;47664;51.660;-0.100;2023-04-28T05:56:20;6;5;
61760;PMS5003;47664;51.660;-0.100;2023-04-28T05:58:47;5;3;
61760;PMS5003;47664;51.660;-0.100;2023-04-28T06:01:14;3;3;
61760;PMS5003;47664;51.660;-0.100;2023-04-28T06:03:41;6;6;
61760;PMS5003;47664;51.660;-0.100;2023-04-28T06:06:09;3;3;
61760;PMS5003;47664;51.660;-0.100;2023-04-28T06:08:37;6;4;
61760;PMS5003;47664;51.660;-0.100;2023-04-28T06:11:04;5;4;
61760;PMS5003;47664;51.660;-0.100;2023-04-28T06:13:31;5;3;
61760;PMS5003;47664;51.660;-0.100;2023-04-28T06:15:59;5;3;
61760;PMS5003;47664;51.660;-0.100;2023-04-28T06:18:26;2;2;
61760;PMS5003;47664;51.660;-0.100;2023-04-28T06:20:54;3;3;
61760;PMS5003;47664;51.660;-0.100;2023-04-28T06:23:22;4;3;
61760;PMS5003;47664;51.660;-0.100;2023-04-28T06:25:49;4;3;
61760;PMS5003;47664;51.660;-0.100;2023-04-28T06:28:16;6;4;
61760;PMS5003;47664;51.660;-0.100;2023-04-28T06:30:43;3;3;
61760;PMS5003;47664;51.660;-0.100;2023-04-28T06:33:11;4;3;
61760;PMS5003;47664;51.660;-0.100;2023-04-28T06:35:38;5;3;
61760;PMS5003;47664;51.660;-0.100;2023-04-28T06:38:05;5;5;
61760;PMS5003;47664;51.660;-0.100;2023-04-28T06:40:33;6;6;
61760;PMS5003;47664;51.660;-0.100;2023-04-28T06:43:00;4;4;
61760;PMS5003;47664;51.660;-0.100;2023-04-28T06:45:27;6;5;
61760;PMS5003;47664;51.660;-0.100;2023-04-28T06:47:54;2;2;
61760;PMS5003;47664;51.660;-0.100;2023-04-28T06:50:22;6;4;
61760;PMS5003;47664;51.660;-0.100;2023-04-28T06:52:49;7;5;
61760;PMS5003;47664;51.660;-0.100;2023-04-28T06:55:17;2;2;
61760;PMS5003;47664;51.660;-0.100;2023-04-28T06:57:44;11;4;
61760;PMS5003;47664;51.660;-0.100;2023-04-28T07:00:11;5;5;
61760;PMS5003;47664;51.660;-0.100;2023-04-28T07:02:40;5;4;
61760;PMS5003;47664;51.660;-0.100;2023-04-28T07:05:08;8;8;
61760;PMS5003;47664;51.660;-0.100;2023-04-28T07:07:36;6;3;
61760;PMS5003;47664;51.660;-0.100;2023-04-28T07:10:04;5;4;
61760;PMS5003;47664;51.660;-0.100;2023-04-28T07:12:32;2;2;
61760;PMS5003;47664;51.660;-0.100;2023-04-28T07:15:00;1;1;
61760;PMS5003;47664;51.660;-0.100;2023-04-28T07:17:27;3;2;
61760;PMS5003;47664;51.660;-0.100;2023-04-28T07:19:54;9;7;
61760;PMS5003;47664;51.660;-0.100;2023-04-28T07:22:21;5;5;
61760;PMS5003;47664;51.660;-0.100;2023-04-28T07:24:47;5;5;
61760;PMS5003;47664;51.660;-0.100;2023-04-28T07:27:15;8;8;
61760;PMS5003;47664;51.660;-0.100;2023-04-28T07:29:42;2;2;
61760;PMS5003;47664;51.660;-0.100;2023-04-28T07:32:09;4;2;
61760;PMS5003;47664;51.660;-0.100;2023-04-28T07:34:36;5;3;
61760;PMS5003;47664;51.660;-0.100;2023-04-28T07:37:04;3;3;
61760;PMS5003;47664;51.660;-0.100;2023-04-28T07:39:32;3;3;
61760;PMS5003;47664;51.660;-0.100;2023-04-28T07:41:59;3;3;
61760;PMS5003;47664;51.660;-0.100;2023-04-28T07:44:27;17;9;
61760;PMS5003;47664;51.660;-0.100;2023-04-28T07:46:54;4;2;
61760;PMS5003;47664;51.660;-0.100;2023-04-28T07:49:22;3;2;
61760;PMS5003;47664;51.660;-0.100;2023-04-28T07:51:50;6;6;
61760;PMS5003;47664;51.660;-0.100;2023-04-28T07:54:17;6;6;
61760;PMS5003;47664;51.660;-0.100;2023-04-28T07:56:44;11;5;
61760;PMS5003;47664;51.660;-0.100;2023-04-28T07:59:12;6;6;
61760;PMS5003;47664;51.660;-0.100;2023-04-28T08:01:43;2;2;
61760;PMS5003;47664;51.660;-0.100;2023-04-28T08:04:10;1;1;
61760;PMS5003;47664;51.660;-0.100;2023-04-28T08:06:38;2;2;
61760;PMS5003;47664;51.660;-0.100;2023-04-28T08:09:05;1;1;
61760;PMS5003;47664;51.660;-0.100;2023-04-28T08:11:33;1;1;
61760;PMS5003;47664;51.660;-0.100;2023-04-28T08:14:00;1;1;
61760;PMS5003;47664;51.660;-0.100;2023-04-28T08:16:28;1;1;
61760;PMS5003;47664;51.660;-0.100;2023-04-28T08:18:56;2;2;
61760;PMS5003;47664;51.660;-0.100;2023-04-28T08:21:23;2;2;
61760;PMS5003;47664;51.660;-0.100;2023-04-28T08:23:50;1;1;
61760;PMS5003;47664;51.660;-0.100;2023-04-28T08:26:17;2;1;
61760;PMS5003;47664;51.660;-0.100;2023-04-28T08:28:44;0;0;
61760;PMS5003;47664;51.660;-0.100;2023-04-28T08:31:12;2;1;
61760;PMS5003;47664;51.660;-0.100;2023-04-28T08:33:39;2;2;
61760;PMS5003;47664;51.660;-0.100;2023-04-28T08:36:06;1;1;
61760;PMS5003;47664;51.660;-0.100;2023-04-28T08:38:34;0;0;
61760;PMS5003;47664;51.660;-0.100;2023-04-28T08:41:02;3;3;
61760;PMS5003;47664;51.660;-0.100;2023-04-28T08:43:31;2;2;
61760;PMS5003;47664;51.660;-0.100;2023-04-28T08:46:00;6;4;
61760;PMS5003;47664;51.660;-0.100;2023-04-28T08:48:36;3;1;
61760;PMS5003;47664;51.660;-0.100;2023-04-28T08:51:06;1;1;
61760;PMS5003;47664;51.660;-0.100;2023-04-28T08:53:36;1;1;
61760;PMS5003;47664;51.660;-0.100;2023-04-28T08:56:04;0;0;
61760;PMS5003;47664;51.660;-0.100;2023-04-28T08:58:34;0;0;
61760;PMS5003;47664;51.660;-0.100;2023-04-28T09:01:01;0;0;
61760;PMS5003;47664;51.660;-0.100;2023-04-28T09:03:28;0;0;
61760;PMS5003;47664;51.660;-0.100;2023-04-28T09:05:55;0;0;
61760;PMS5003;47664;51.660;-0.100;2023-04-28T09:08:23;0;0;
61760;PMS5003;47664;51.660;-0.100;2023-04-28T09:10:55;0;0;
61760;PMS5003;47664;51.660;-0.100;2023-04-28T09:13:31;0;0;
61760;PMS5003;47664;51.660;-0.100;2023-04-28T09:15:59;0;0;
61760;PMS5003;47664;51.660;-0.100;2023-04-28T09:18:27;0;0;
61760;PMS5003;47664;51.660;-0.100;2023-04-28T09:21:01;1;0;
61760;PMS5003;47664;51.660;-0.100;2023-04-28T09:23:30;1;0;
61760;PMS5003;47664;51.660;-0.100;2023-04-28T09:25:58;1;1;
61760;PMS5003;47664;51.660;-0.100;2023-04-28T09:28:27;4;4;
61760;PMS5003;47664;51.660;-0.100;2023-04-28T09:30:54;2;1;
61760;PMS5003;47664;51.660;-0.100;2023-04-28T09:33:21;0;0;
61760;PMS5003;47664;51.660;-0.100;2023-04-28T09:35:49;0;0;
61760;PMS5003;47664;51.660;-0.100;2023-04-28T09:38:17;0;0;
61760;PMS5003;47664;51.660;-0.100;2023-04-28T09:40:54;0;0;
61760;PMS5003;47664;51.660;-0.100;2023-04-28T09:43:23;0;0;
61760;PMS5003;47664;51.660;-0.100;2023-04-28T09:45:53;0;0;
61760;PMS5003;47664;51.660;-0.100;2023-04-28T09:48:28;0;0;
61760;PMS5003;47664;51.660;-0.100;2023-04-28T09:50:57;0;0;
61760;PMS5003;47664;51.660;-0.100;2023-04-28T09:53:25;0;0;
61760;PMS5003;47664;51.660;-0.100;2023-04-28T09:55:54;0;0;
61760;PMS5003;47664;51.660;-0.100;2023-04-28T09:58:23;0;0;
61760;PMS5003;47664;51.660;-0.100;2023-04-28T10:00:52;0;0;
61760;PMS5003;47664;51.660;-0.100;2023-04-28T10:03:21;1;1;
61760;PMS5003;47664;51.660;-0.100;2023-04-28T10:05:49;1;1;
61760;PMS5003;47664;51.660;-0.100;2023-04-28T10:08:17;0;0;
61760;PMS5003;47664;51.660;-0.100;2023-04-28T10:10:45;0;0;
61760;PMS5003;47664;51.660;-0.100;2023-04-28T10:13:12;0;0;
61760;PMS5003;47664;51.660;-0.100;2023-04-28T10:15:41;0;0;
61760;PMS5003;47664;51.660;-0.100;2023-04-28T10:18:08;0;0;
61760;PMS5003;47664;51.660;-0.100;2023-04-28T10:20:38;1;0;
61760;PMS5003;47664;51.660;-0.100;2023-04-28T10:23:16;0;0;
61760;PMS5003;47664;51.660;-0.100;2023-04-28T10:25:59;0;0;
61760;PMS5003;47664;51.660;-0.100;2023-04-28T10:28:28;0;0;
61760;PMS5003;47664;51.660;-0.100;2023-04-28T10:31:11;1;1;
61760;PMS5003;47664;51.660;-0.100;2023-04-28T10:33:40;0;0;
61760;PMS5003;47664;51.660;-0.100;2023-04-28T10:36:08;2;0;
61760;PMS5003;47664;51.660;-0.100;2023-04-28T10:41:34;1;1;
61760;PMS5003;47664;51.660;-0.100;2023-04-28T10:44:17;1;1;
61760;PMS5003;47664;51.660;-0.100;2023-04-28T10:47:07;1;1;
61760;PMS5003;47664;51.660;-0.100;2023-04-28T10:50:07;4;1;
61760;PMS5003;47664;51.660;-0.100;2023-04-28T10:52:50;1;1;
61760;PMS5003;47664;51.660;-0.100;2023-04-28T10:55:33;2;2;
61760;PMS5003;47664;51.660;-0.100;2023-04-28T10:58:41;1;1;
61760;PMS5003;47664;51.660;-0.100;2023-04-28T11:01:25;1;1;
61760;PMS5003;47664;51.660;-0.100;2023-04-28T11:03:53;1;1;
61760;PMS5003;47664;51.660;-0.100;2023-04-28T11:06:22;2;2;
61760;PMS5003;47664;51.660;-0.100;2023-04-28T11:08:51;2;2;
61760;PMS5003;47664;51.660;-0.100;2023-04-28T11:11:19;2;2;
61760;PMS5003;47664;51.660;-0.100;2023-04-28T11:13:47;4;2;
61760;PMS5003;47664;51.660;-0.100;2023-04-28T11:16:15;2;2;
61760;PMS5003;47664;51.660;-0.100;2023-04-28T11:18:54;3;3;
61760;PMS5003;47664;51.660;-0.100;2023-04-28T11:21:23;3;3;
61760;PMS5003;47664;51.660;-0.100;2023-04-28T11:23:52;4;3;
61760;PMS5003;47664;51.660;-0.100;2023-04-28T11:26:20;2;2;
61760;PMS5003;47664;51.660;-0.100;2023-04-28T11:28:48;1;1;
61760;PMS5003;47664;51.660;-0.100;2023-04-28T11:31:19;2;2;
61760;PMS5003;47664;51.660;-0.100;2023-04-28T11:33:48;2;1;
61760;PMS5003;47664;51.660;-0.100;2023-04-28T11:36:26;2;2;
61760;PMS5003;47664;51.660;-0.100;2023-04-28T11:38:55;3;2;
61760;PMS5003;47664;51.660;-0.100;2023-04-28T11:41:22;1;1;
61760;PMS5003;47664;51.660;-0.100;2023-04-28T11:43:50;2;0;
61760;PMS5003;47664;51.660;-0.100;2023-04-28T11:46:18;1;1;
61760;PMS5003;47664;51.660;-0.100;2023-04-28T11:48:46;2;0;
61760;PMS5003;47664;51.660;-0.100;2023-04-28T11:51:46;1;1;
61760;PMS5003;47664;51.660;-0.100;2023-04-28T11:54:17;2;2;
61760;PMS5003;47664;51.660;-0.100;2023-04-28T11:56:47;1;1;
61760;PMS5003;47664;51.660;-0.100;2023-04-28T11:59:14;3;2;
61760;PMS5003;47664;51.660;-0.100;2023-04-28T12:01:44;1;1;
61760;PMS5003;47664;51.660;-0.100;2023-04-28T12:04:13;3;1;
61760;PMS5003;47664;51.660;-0.100;2023-04-28T12:06:57;1;1;
61760;PMS5003;47664;51.660;-0.100;2023-04-28T12:09:25;1;1;
61760;PMS5003;47664;51.660;-0.100;2023-04-28T12:11:54;1;1;
61760;PMS5003;47664;51.660;-0.100;2023-04-28T12:14:22;1;1;
61760;PMS5003;47664;51.660;-0.100;2023-04-28T12:16:50;3;2;
61760;PMS5003;47664;51.660;-0.100;2023-04-28T12:19:18;4;2;
61760;PMS5003;47664;51.660;-0.100;2023-04-28T12:21:57;1;1;
61760;PMS5003;47664;51.660;-0.100;2023-04-28T12:24:26;2;2;
61760;PMS5003;47664;51.660;-0.100;2023-04-28T12:26:53;4;2;
61760;PMS5003;47664;51.660;-0.100;2023-04-28T12:29:37;2;2;
61760;PMS5003;47664;51.660;-0.100;2023-04-28T12:32:06;2;2;
61760;PMS5003;47664;51.660;-0.100;2023-04-28T12:35:30;4;2;
61760;PMS5003;47664;51.660;-0.100;2023-04-28T12:37:58;2;2;
61760;PMS5003;47664;51.660;-0.100;2023-04-28T12:40:24;2;1;
61760;PMS5003;47664;51.660;-0.100;2023-04-28T12:42:52;5;4;
61760;PMS5003;47664;51.660;-0.100;2023-04-28T12:45:19;2;2;
61760;PMS5003;47664;51.660;-0.100;2023-04-28T12:47:46;3;2;
61760;PMS5003;47664;51.660;-0.100;2023-04-28T12:50:13;4;0;
61760;PMS5003;47664;51.660;-0.100;2023-04-28T12:52:40;1;1;
61760;PMS5003;47664;51.660;-0.100;2023-04-28T12:55:08;3;1;
61760;PMS5003;47664;51.660;-0.100;2023-04-28T12:57:36;2;1;
61760;PMS5003;47664;51.660;-0.100;2023-04-28T13:00:04;1;1;
61760;PMS5003;47664;51.660;-0.100;2023-04-28T13:02:32;1;1;
61760;PMS5003;47664;51.660;-0.100;2023-04-28T13:04:59;1;1;
61760;PMS5003;47664;51.660;-0.100;2023-04-28T13:07:27;3;3;
61760;PMS5003;47664;51.660;-0.100;2023-04-28T13:09:55;4;2;
61760;PMS5003;47664;51.660;-0.100;2023-04-28T13:12:23;3;3;
61760;PMS5003;47664;51.660;-0.100;2023-04-28T13:14:50;4;4;
61760;PMS5003;47664;51.660;-0.100;2023-04-28T13:17:17;3;3;
61760;PMS5003;47664;51.660;-0.100;2023-04-28T13:19:44;8;8;
61760;PMS5003;47664;51.660;-0.100;2023-04-28T13:22:11;6;5;
61760;PMS5003;47664;51.660;-0.100;2023-04-28T13:24:38;6;5;
61760;PMS5003;47664;51.660;-0.100;2023-04-28T13:27:04;6;6;
61760;PMS5003;47664;51.660;-0.100;2023-04-28T13:29:31;5;5;
61760;PMS5003;47664;51.660;-0.100;2023-04-28T13:31:58;4;4;
61760;PMS5003;47664;51.660;-0.100;2023-04-28T13:34:25;4;4;
61760;PMS5003;47664;51.660;-0.100;2023-04-28T13:36:52;5;5;
61760;PMS5003;47664;51.660;-0.100;2023-04-28T13:39:19;6;5;
61760;PMS5003;47664;51.660;-0.100;2023-04-28T13:41:47;3;3;
61760;PMS5003;47664;51.660;-0.100;2023-04-28T13:44:14;5;4;
61760;PMS5003;47664;51.660;-0.100;2023-04-28T13:46:42;7;2;
61760;PMS5003;47664;51.660;-0.100;2023-04-28T13:49:10;5;5;
61760;PMS5003;47664;51.660;-0.100;2023-04-28T13:51:37;4;4;
61760;PMS5003;47664;51.660;-0.100;2023-04-28T13:54:04;3;3;
61760;PMS5003;47664;51.660;-0.100;2023-04-28T13:56:31;1;1;
61760;PMS5003;47664;51.660;-0.100;2023-04-28T13:58:59;2;2;
61760;PMS5003;47664;51.660;-0.100;2023-04-28T14:01:26;5;3;
61760;PMS5003;47664;51.660;-0.100;2023-04-28T14:03:54;4;3;
61760;PMS5003;47664;51.660;-0.100;2023-04-28T14:06:20;3;3;
61760;PMS5003;47664;51.660;-0.100;2023-04-28T14:08:47;6;4;
61760;PMS5003;47664;51.660;-0.100;2023-04-28T14:11:15;4;4;
61760;PMS5003;47664;51.660;-0.100;2023-04-28T14:13:43;5;5;
61760;PMS5003;47664;51.660;-0.100;2023-04-28T14:16:11;6;3;
61760;PMS5003;47664;51.660;-0.100;2023-04-28T14:18:39;4;4;
61760;PMS5003;47664;51.660;-0.100;2023-04-28T14:21:06;5;5;
61760;PMS5003;47664;51.660;-0.100;2023-04-28T14:23:33;4;4;
61760;PMS5003;47664;51.660;-0.100;2023-04-28T14:26:01;4;4;
61760;PMS5003;47664;51.660;-0.100;2023-04-28T14:28:28;3;3;
61760;PMS5003;47664;51.660;-0.100;2023-04-28T14:30:54;5;5;
61760;PMS5003;47664;51.660;-0.100;2023-04-28T14:33:22;3;3;
61760;PMS5003;47664;51.660;-0.100;2023-04-28T14:35:49;6;5;
61760;PMS5003;47664;51.660;-0.100;2023-04-28T14:38:16;5;3;
61760;PMS5003;47664;51.660;-0.100;2023-04-28T14:40:43;5;5;
61760;PMS5003;47664;51.660;-0.100;2023-04-28T14:43:10;4;3;
61760;PMS5003;47664;51.660;-0.100;2023-04-28T14:45:37;2;2;
61760;PMS5003;47664;51.660;-0.100;2023-04-28T14:48:04;4;4;
61760;PMS5003;47664;51.660;-0.100;2023-04-28T14:50:31;4;3;
61760;PMS5003;47664;51.660;-0.100;2023-04-28T14:52:59;5;3;
61760;PMS5003;47664;51.660;-0.100;2023-04-28T14:55:26;4;4;
61760;PMS5003;47664;51.660;-0.100;2023-04-28T14:57:53;7;7;
61760;PMS5003;47664;51.660;-0.100;2023-04-28T15:00:19;7;4;
61760;PMS5003;47664;51.660;-0.100;2023-04-28T15:02:46;5;5;
61760;PMS5003;47664;51.660;-0.100;2023-04-28T15:05:13;8;6;
61760;PMS5003;47664;51.660;-0.100;2023-04-28T15:07:40;6;3;
61760;PMS5003;47664;51.660;-0.100;2023-04-28T15:10:08;5;4;
61760;PMS5003;47664;51.660;-0.100;2023-04-28T15:12:35;3;3;
61760;PMS5003;47664;51.660;-0.100;2023-04-28T15:15:03;11;7;
61760;PMS5003;47664;51.660;-0.100;2023-04-28T15:17:30;6;6;
61760;PMS5003;47664;51.660;-0.100;2023-04-28T15:19:58;10;7;
61760;PMS5003;47664;51.660;-0.100;2023-04-28T15:22:25;12;10;
61760;PMS5003;47664;51.660;-0.100;2023-04-28T15:24:52;12;11;
61760;PMS5003;47664;51.660;-0.100;2023-04-28T15:27:20;10;10;
61760;PMS5003;47664;51.660;-0.100;2023-04-28T15:29:47;10;9;
61760;PMS5003;47664;51.660;-0.100;2023-04-28T15:32:14;13;10;
61760;PMS5003;47664;51.660;-0.100;2023-04-28T15:34:41;11;10;
61760;PMS5003;47664;51.660;-0.100;2023-04-28T15:40:06;14;12;
61760;PMS5003;47664;51.660;-0.100;2023-04-28T15:42:34;11;9;
61760;PMS5003;47664;51.660;-0.100;2023-04-28T15:45:01;8;8;
61760;PMS5003;47664;51.660;-0.100;2023-04-28T15:47:29;11;9;
61760;PMS5003;47664;51.660;-0.100;2023-04-28T15:49:56;9;9;
61760;PMS5003;47664;51.660;-0.100;2023-04-28T15:52:23;9;9;
61760;PMS5003;47664;51.660;-0.100;2023-04-28T15:54:50;6;6;
61760;PMS5003;47664;51.660;-0.100;2023-04-28T15:57:18;9;8;
61760;PMS5003;47664;51.660;-0.100;2023-04-28T15:59:45;12;11;
61760;PMS5003;47664;51.660;-0.100;2023-04-28T16:02:13;10;9;
61760;PMS5003;47664;51.660;-0.100;2023-04-28T16:04:41;8;8;
61760;PMS5003;47664;51.660;-0.100;2023-04-28T16:07:08;11;9;
61760;PMS5003;47664;51.660;-0.100;2023-04-28T16:09:35;12;9;
61760;PMS5003;47664;51.660;-0.100;2023-04-28T16:12:03;13;11;
61760;PMS5003;47664;51.660;-0.100;2023-04-28T16:14:31;9;9;
61760;PMS5003;47664;51.660;-0.100;2023-04-28T16:16:58;12;11;
61760;PMS5003;47664;51.660;-0.100;2023-04-28T16:19:25;12;10;
61760;PMS5003;47664;51.660;-0.100;2023-04-28T16:21:52;12;10;
61760;PMS5003;47664;51.660;-0.100;2023-04-28T16:24:19;13;10;
61760;PMS5003;47664;51.660;-0.100;2023-04-28T16:26:45;10;10;
61760;PMS5003;47664;51.660;-0.100;2023-04-28T16:29:12;11;11;
61760;PMS5003;47664;51.660;-0.100;2023-04-28T16:31:40;10;10;
61760;PMS5003;47664;51.660;-0.100;2023-04-28T16:34:07;15;11;
61760;PMS5003;47664;51.660;-0.100;2023-04-28T16:36:35;15;13;
61760;PMS5003;47664;51.660;-0.100;2023-04-28T16:39:02;16;12;